Gainesville Regional Airport
KGNV : now visible

Airfield :











YOU CAN JOIN US ON...

 
LOGIN :

Register | Disclaimer

   EN    FR    IT 

 









Legend :    VFR   Marginal VFR   IFR   Intensive IFR   Very Intensive IFR
Visi :
Ceiling :
>= 8 km
>= 3000ft
5 to 8 km
1000 to 3000 ft
1500m to 5 km
500 to 1000 ft
800 to 1500m
200 to 500 ft
< 800m
< 200 ft
Symbols :   Thunderstorms  Fog  Heavy snow  Heavy precipitations  Wind > 20 kt







- Airport Elevation : 152 ft
- IATA code : GNV


KGNV - Gainesville Regional

CURRENT METAR :
  • 212053Z 08014G19KT 10SM FEW050 BKN065 29/18 A3016 RMK AO2 SLP209 T02940178 56015

EXPIRED METARs :
  • 211953Z 10015G20KT 10SM SCT065 BKN075 30/17 A3017 RMK AO2 SLP213 T03000172
  • 211853Z 09011G22KT 10SM BKN065 29/18 A3019 RMK AO2 SLP220 T02890178

TAF KGNV
Valid from the 21 at 18:00 until the 22 at 18:00 UTC


211720Z 2118/2218 09012G18KT P6SM SCT050 SCT080
FM220300 VRB03KT P6SM FEW040 SCT080
FM221500 08010KT P6SM SCT080
No reported NOTAMs for that airfield.



MET'MAP, your aeronautical weather chart ! - Copyright ORBIFLY December 2007 - Disclaimer

ORBIFLY MET'MAP TEAM :

Programming & Development : Alexandra Zaïnal
Concept & Development : Baudouin d'Aumeries
Co-Development & Prog : Marc-Olivier Méhu
Technical & hardware support : Manuel Goepfert

Contact : metmap@orbifly.com




SOURCES & CREDITS :

   NOAA       Earth
Advisory